createdAt,value
2019-04-11T00:02:08.610Z,13.50
2019-04-11T00:04:35.627Z,15.67
2019-04-11T00:07:03.657Z,16.47
2019-04-11T00:09:30.550Z,17.00
2019-04-11T00:11:57.922Z,14.40
2019-04-11T00:14:25.037Z,13.97
2019-04-11T00:16:51.851Z,14.07
2019-04-11T00:19:19.094Z,14.37
2019-04-11T00:21:46.772Z,15.63
2019-04-11T00:24:14.454Z,14.53
2019-04-11T00:26:41.337Z,14.40
2019-04-11T00:29:08.074Z,11.67
2019-04-11T00:31:34.873Z,14.40
2019-04-11T00:34:02.574Z,14.23
2019-04-11T00:36:30.329Z,13.20
2019-04-11T00:38:57.704Z,12.57
2019-04-11T00:41:24.514Z,15.93
2019-04-11T00:43:52.586Z,12.77
2019-04-11T00:46:20.310Z,12.17
2019-04-11T00:48:48.104Z,12.00
2019-04-11T00:51:17.090Z,11.70
2019-04-11T00:53:44.492Z,12.70
2019-04-11T00:56:12.362Z,12.57
2019-04-11T00:58:39.156Z,13.23
2019-04-11T01:01:07.127Z,12.60
2019-04-11T01:03:34.415Z,16.43
2019-04-11T01:06:01.565Z,12.03
2019-04-11T01:08:29.380Z,12.07
2019-04-11T01:10:57.320Z,14.00
2019-04-11T01:13:24.061Z,12.80
2019-04-11T01:15:50.784Z,10.30
2019-04-11T01:18:18.043Z,14.13
2019-04-11T01:20:46.046Z,11.30
2019-04-11T01:23:13.074Z,10.40
2019-04-11T01:25:40.944Z,15.20
2019-04-11T01:28:07.763Z,13.03
2019-04-11T01:30:34.542Z,13.27
2019-04-11T01:33:02.415Z,13.30
2019-04-11T01:35:29.444Z,14.20
2019-04-11T01:37:56.138Z,9.93
2019-04-11T01:40:23.450Z,12.93
2019-04-11T01:42:51.319Z,15.67
2019-04-11T01:45:19.037Z,14.00
2019-04-11T01:47:46.818Z,11.87
2019-04-11T01:50:13.672Z,12.87
2019-04-11T01:52:40.397Z,10.73
2019-04-11T01:55:08.239Z,11.30
2019-04-11T01:57:36.097Z,11.90
2019-04-11T02:00:03.829Z,12.77
2019-04-11T02:02:31.060Z,13.83
2019-04-11T02:04:59.137Z,14.50
2019-04-11T02:07:26.847Z,14.43
2019-04-11T02:09:54.756Z,13.50
2019-04-11T02:12:22.495Z,13.50
2019-04-11T02:14:50.118Z,13.63
2019-04-11T02:17:17.081Z,14.17
2019-04-11T02:19:44.752Z,12.83
2019-04-11T02:22:11.644Z,13.20
2019-04-11T02:24:39.621Z,12.97
2019-04-11T02:27:06.550Z,11.20
2019-04-11T02:29:33.370Z,13.07
2019-04-11T02:32:04.763Z,11.33
2019-04-11T02:34:29.678Z,11.60
2019-04-11T02:36:58.197Z,12.73
2019-04-11T02:39:27.571Z,11.20
2019-04-11T02:41:54.784Z,14.37
2019-04-11T02:44:39.520Z,12.43
2019-04-11T02:46:58.059Z,12.73
2019-04-11T02:49:19.257Z,12.57
2019-04-11T02:51:47.407Z,10.83
2019-04-11T02:54:15.922Z,11.77
2019-04-11T02:56:45.095Z,11.60
2019-04-11T02:59:13.358Z,12.50
2019-04-11T03:01:42.012Z,13.40
2019-04-11T03:04:08.809Z,11.43
2019-04-11T03:06:36.075Z,11.63
2019-04-11T03:09:04.629Z,11.30
2019-04-11T03:11:32.508Z,11.30
2019-04-11T03:14:01.258Z,10.87
2019-04-11T03:16:38.253Z,12.27
2019-04-11T03:19:15.949Z,11.00
2019-04-11T03:21:26.901Z,11.90
2019-04-11T03:23:53.180Z,12.97
2019-04-11T03:26:21.234Z,12.33
2019-04-11T03:28:50.199Z,11.43
2019-04-11T03:31:50.639Z,12.50
2019-04-11T03:39:00.247Z,12.23
2019-04-11T03:41:23.582Z,11.33
2019-04-11T03:43:50.876Z,11.53
2019-04-11T03:46:28.317Z,11.30
2019-04-11T03:48:46.780Z,13.27
2019-04-11T03:51:04.651Z,12.77
2019-04-11T03:53:32.449Z,11.10
2019-04-11T03:56:01.495Z,12.30
2019-04-11T03:58:29.464Z,14.97
2019-04-11T04:00:59.464Z,12.23
2019-04-11T04:03:26.644Z,13.53
2019-04-11T04:05:54.942Z,14.30
2019-04-11T04:08:22.439Z,12.93
2019-04-11T04:10:50.074Z,12.33
2019-04-11T04:13:18.686Z,12.23
2019-04-11T04:15:59.973Z,12.33
2019-04-11T04:18:15.089Z,14.93
2019-04-11T04:20:42.448Z,12.77
2019-04-11T04:23:12.066Z,12.17
2019-04-11T04:25:39.241Z,13.27
2019-04-11T04:28:07.493Z,12.53
2019-04-11T04:30:36.017Z,13.30
2019-04-11T04:33:04.749Z,11.43
2019-04-11T04:35:32.281Z,11.93
2019-04-11T04:38:00.407Z,12.50
2019-04-11T04:40:44.786Z,12.20
2019-04-11T04:42:57.916Z,12.23
2019-04-11T04:45:24.351Z,12.67
2019-04-11T04:47:56.845Z,12.43
2019-04-11T04:50:20.035Z,12.97
2019-04-11T04:52:46.946Z,13.23
2019-04-11T04:55:13.655Z,10.83
2019-04-11T04:57:40.638Z,11.20
2019-04-11T05:00:09.160Z,11.40
2019-04-11T05:02:37.379Z,15.50
2019-04-11T05:05:05.912Z,11.03
2019-04-11T05:07:37.931Z,13.53
2019-04-11T05:10:03.350Z,15.60
2019-04-11T05:12:30.264Z,14.73
2019-04-11T05:14:57.178Z,15.03
2019-04-11T05:17:26.313Z,14.77
2019-04-11T05:19:52.597Z,14.03
2019-04-11T05:22:19.403Z,13.00
2019-04-11T05:24:46.177Z,15.93
2019-04-11T05:27:12.915Z,18.13
2019-04-11T05:29:39.805Z,14.13
2019-04-11T05:32:07.282Z,15.37
2019-04-11T05:34:35.208Z,18.40
2019-04-11T05:37:02.430Z,13.60
2019-04-11T05:39:29.273Z,16.33
2019-04-11T05:41:56.684Z,14.80
2019-04-11T05:44:23.517Z,13.17
2019-04-11T05:46:57.258Z,14.23
2019-04-11T05:49:21.374Z,16.63
2019-04-11T05:51:47.575Z,14.97
2019-04-11T05:54:14.522Z,17.17
2019-04-11T05:56:41.637Z,16.67
2019-04-11T05:59:09.443Z,12.27
2019-04-11T06:01:36.375Z,12.63
2019-04-11T06:04:03.115Z,13.57
2019-04-11T06:06:34.307Z,14.70
2019-04-11T06:09:00.614Z,15.33
2019-04-11T06:11:26.837Z,13.10
2019-04-11T06:13:53.925Z,12.77
2019-04-11T06:16:20.864Z,13.00
2019-04-11T06:18:48.171Z,16.97
2019-04-11T06:21:15.801Z,16.33
2019-04-11T06:23:43.461Z,17.23
2019-04-11T06:26:10.859Z,17.97
2019-04-11T06:28:38.266Z,18.23
2019-04-11T06:31:06.025Z,14.87
2019-04-11T06:33:32.852Z,15.40
2019-04-11T06:36:00.193Z,16.70
2019-04-11T06:38:27.188Z,12.93
2019-04-11T06:40:54.515Z,15.30
2019-04-11T06:43:21.395Z,19.53
2019-04-11T06:45:48.232Z,17.97
2019-04-11T06:48:15.711Z,16.47
2019-04-11T06:50:43.885Z,16.77
2019-04-11T06:53:11.452Z,14.93
2019-04-11T06:55:39.166Z,14.27
2019-04-11T06:58:06.783Z,14.60
2019-04-11T07:00:33.692Z,17.57
2019-04-11T07:03:01.304Z,15.70
2019-04-11T07:05:28.944Z,18.17
2019-04-11T07:07:55.946Z,16.50
2019-04-11T07:10:22.919Z,16.37
2019-04-11T07:12:49.651Z,16.43
2019-04-11T07:15:16.577Z,17.03
2019-04-11T07:17:43.849Z,17.07
2019-04-11T07:20:10.919Z,17.13
2019-04-11T07:22:37.917Z,15.43
2019-04-11T07:25:06.043Z,15.40
2019-04-11T07:27:32.825Z,16.43
2019-04-11T07:29:59.615Z,17.13
2019-04-11T07:32:27.702Z,17.80
2019-04-11T07:34:54.705Z,15.13
2019-04-11T07:37:21.518Z,15.67
2019-04-11T07:39:49.381Z,16.63
2019-04-11T07:42:18.112Z,18.30
2019-04-11T07:44:45.159Z,14.60
2019-04-11T07:47:17.173Z,16.27
2019-04-11T07:49:40.906Z,17.27
2019-04-11T07:52:08.870Z,17.23
2019-04-11T07:54:36.992Z,17.17
2019-04-11T07:57:04.272Z,17.97
2019-04-11T07:59:31.595Z,18.37
2019-04-11T08:01:59.305Z,17.17
2019-04-11T08:04:26.137Z,14.97
2019-04-11T08:06:52.867Z,15.50
2019-04-11T08:09:19.594Z,16.83
2019-04-11T08:11:46.397Z,16.53
2019-04-11T08:14:13.168Z,17.27
2019-04-11T08:16:40.011Z,16.83
2019-04-11T08:19:07.607Z,18.17
2019-04-11T08:21:35.782Z,19.60
2019-04-11T08:24:02.900Z,17.90
2019-04-11T08:26:30.446Z,16.83
2019-04-11T08:29:05.340Z,23.03
2019-04-11T08:31:26.456Z,19.07
2019-04-11T08:33:53.376Z,18.47
2019-04-11T08:36:20.088Z,17.57
2019-04-11T08:38:46.816Z,14.67
2019-04-11T08:41:13.605Z,15.70
2019-04-11T08:43:41.419Z,17.97
2019-04-11T08:46:08.807Z,20.80
2019-04-11T08:48:35.650Z,30.37
2019-04-11T08:51:03.077Z,22.30
2019-04-11T08:53:30.846Z,21.57
2019-04-11T08:56:00.492Z,23.17
2019-04-11T08:58:26.745Z,72.07
2019-04-11T09:00:56.296Z,20.77
2019-04-11T09:03:23.891Z,18.70
2019-04-11T09:05:51.319Z,14.57
2019-04-11T09:08:18.371Z,17.43
2019-04-11T09:10:46.423Z,17.90
2019-04-11T09:13:13.335Z,14.00
2019-04-11T09:15:41.210Z,16.90
2019-04-11T09:18:11.862Z,14.67
2019-04-11T09:20:37.978Z,16.40
2019-04-11T09:23:05.850Z,19.73
2019-04-11T09:25:32.777Z,18.50
2019-04-11T09:28:00.773Z,16.70
2019-04-11T09:30:28.486Z,15.00
2019-04-11T09:32:56.204Z,15.37
2019-04-11T09:35:23.901Z,14.67
2019-04-11T09:37:51.802Z,14.70
2019-04-11T09:40:19.539Z,15.30
2019-04-11T09:42:47.100Z,14.67
2019-04-11T09:45:13.876Z,17.63
2019-04-11T09:47:41.351Z,18.67
2019-04-11T09:50:08.106Z,16.50
2019-04-11T09:52:35.268Z,19.97
2019-04-11T09:55:02.041Z,17.63
2019-04-11T09:57:29.184Z,17.40
2019-04-11T09:59:56.309Z,16.90
2019-04-11T10:02:23.416Z,16.60
2019-04-11T10:04:50.249Z,13.63
2019-04-11T10:07:17.608Z,14.37
2019-04-11T10:09:46.260Z,17.30
2019-04-11T10:12:13.808Z,15.33
2019-04-11T10:14:41.787Z,15.37
2019-04-11T10:17:08.825Z,15.70
2019-04-11T10:19:36.017Z,13.87
2019-04-11T10:22:02.997Z,14.57
2019-04-11T10:24:30.507Z,14.53
2019-04-11T10:26:58.476Z,15.73
2019-04-11T10:29:26.030Z,17.70
2019-04-11T10:31:54.862Z,15.20
2019-04-11T10:34:22.217Z,15.43
2019-04-11T10:36:49.610Z,15.43
2019-04-11T10:39:18.158Z,16.53
2019-04-11T10:41:46.107Z,16.47
2019-04-11T10:44:13.982Z,14.67
2019-04-11T10:46:41.745Z,15.50
2019-04-11T10:49:09.460Z,16.53
2019-04-11T10:51:37.918Z,15.60
2019-04-11T10:54:05.848Z,15.77
2019-04-11T10:56:34.668Z,16.00
2019-04-11T10:59:01.751Z,13.63
2019-04-11T11:01:28.580Z,13.23
2019-04-11T11:03:55.584Z,15.87
2019-04-11T11:06:22.273Z,13.80
2019-04-11T11:08:50.025Z,14.27
2019-04-11T11:11:17.523Z,14.43
2019-04-11T11:13:44.338Z,15.43
2019-04-11T11:16:11.876Z,12.30
2019-04-11T11:19:07.528Z,13.77
2019-04-11T11:21:07.549Z,18.10
2019-04-11T11:23:35.275Z,14.43
2019-04-11T11:26:02.793Z,14.37
2019-04-11T11:28:30.139Z,21.23
2019-04-11T11:30:56.921Z,13.57
2019-04-11T11:33:25.135Z,14.20
2019-04-11T11:35:52.200Z,17.90
2019-04-11T11:38:19.911Z,16.43
2019-04-11T11:40:47.876Z,16.03
2019-04-11T11:43:14.840Z,18.50
2019-04-11T11:45:41.705Z,16.20
2019-04-11T11:48:13.699Z,16.30
2019-04-11T11:50:37.607Z,19.30
2019-04-11T11:53:09.373Z,16.00
2019-04-11T11:55:33.498Z,12.30
2019-04-11T11:58:00.802Z,16.67
2019-04-11T12:00:30.282Z,13.77
2019-04-11T12:02:57.494Z,14.50
2019-04-11T12:05:26.301Z,15.50
2019-04-11T12:07:54.433Z,12.77
2019-04-11T12:10:22.502Z,13.70
2019-04-11T12:12:49.269Z,17.47
2019-04-11T12:15:19.182Z,14.40
2019-04-11T12:17:44.887Z,12.93
2019-04-11T12:20:14.263Z,14.70
2019-04-11T12:22:40.245Z,13.40
2019-04-11T12:25:07.234Z,13.40
2019-04-11T12:27:35.102Z,15.70
2019-04-11T12:30:05.396Z,14.93
2019-04-11T12:32:30.608Z,15.67
2019-04-11T12:34:57.766Z,17.80
2019-04-11T12:37:25.306Z,14.20
2019-04-11T12:39:52.171Z,15.73
2019-04-11T12:42:18.905Z,17.37
2019-04-11T12:44:45.866Z,12.97
2019-04-11T12:47:12.597Z,15.00
2019-04-11T12:49:39.436Z,13.37
2019-04-11T12:52:06.253Z,13.57
2019-04-11T12:54:33.097Z,14.20
2019-04-11T12:56:59.934Z,15.10
2019-04-11T12:59:26.778Z,14.20
2019-04-11T13:01:53.670Z,14.07
2019-04-11T13:04:20.568Z,17.90
2019-04-11T13:06:47.356Z,12.57
2019-04-11T13:09:14.080Z,13.20
2019-04-11T13:11:40.798Z,12.57
2019-04-11T13:14:07.900Z,13.20
2019-04-11T13:16:34.680Z,15.70
2019-04-11T13:19:01.504Z,14.50
2019-04-11T13:21:28.353Z,13.23
2019-04-11T13:23:55.099Z,13.00
2019-04-11T13:26:21.929Z,12.77
2019-04-11T13:28:48.941Z,12.77
2019-04-11T13:31:15.714Z,11.77
2019-04-11T13:33:42.566Z,13.70
2019-04-11T13:36:09.466Z,12.47
2019-04-11T13:38:36.242Z,13.83
2019-04-11T13:41:03.091Z,11.47
2019-04-11T13:43:30.056Z,14.23
2019-04-11T13:45:56.783Z,10.80
2019-04-11T13:48:23.626Z,12.40
2019-04-11T13:50:50.398Z,9.93
2019-04-11T13:53:17.135Z,11.03
2019-04-11T13:55:43.861Z,9.83
2019-04-11T13:58:10.695Z,9.53
2019-04-11T14:00:37.425Z,11.47
2019-04-11T14:03:04.147Z,11.77
2019-04-11T14:05:30.954Z,11.00
2019-04-11T14:07:57.679Z,10.67
2019-04-11T14:10:24.402Z,12.97
2019-04-11T14:12:51.197Z,10.70
2019-04-11T14:15:17.934Z,10.10
2019-04-11T14:17:44.652Z,8.47
2019-04-11T14:20:11.802Z,11.57
2019-04-11T14:22:38.637Z,11.37
2019-04-11T14:25:05.362Z,11.50
2019-04-11T14:27:32.162Z,10.97
2019-04-11T14:29:58.905Z,9.13
2019-04-11T14:32:25.635Z,13.50
2019-04-11T14:34:53.588Z,12.10
2019-04-11T14:37:20.502Z,9.97
2019-04-11T14:39:47.237Z,10.10
2019-04-11T14:42:14.046Z,9.83
2019-04-11T14:44:40.758Z,10.40
2019-04-11T14:47:07.498Z,11.10
2019-04-11T14:49:34.282Z,12.00
2019-04-11T14:52:01.017Z,10.17
2019-04-11T14:54:27.745Z,11.60
2019-04-11T14:56:54.523Z,9.80
2019-04-11T14:59:23.967Z,9.33
2019-04-11T15:01:49.632Z,9.00
2019-04-11T15:04:16.419Z,9.83
2019-04-11T15:06:44.738Z,10.97
2019-04-11T15:09:11.509Z,10.73
2019-04-11T15:11:38.295Z,10.57
2019-04-11T15:14:05.018Z,10.53
2019-04-11T15:16:31.760Z,9.50
2019-04-11T15:18:58.558Z,9.40
2019-04-11T15:21:25.290Z,10.87
2019-04-11T15:23:52.009Z,9.73
2019-04-11T15:26:18.807Z,12.37
2019-04-11T15:28:45.539Z,10.07
2019-04-11T15:31:12.263Z,10.17
2019-04-11T15:33:39.050Z,12.10
2019-04-11T15:36:05.779Z,10.57
2019-04-11T15:38:32.548Z,10.57
2019-04-11T15:41:00.220Z,10.63
2019-04-11T15:43:26.995Z,10.20
2019-04-11T15:45:53.850Z,10.93
2019-04-11T15:48:23.440Z,8.93
2019-04-11T15:50:49.170Z,9.73
2019-04-11T15:53:16.011Z,9.70
2019-04-11T15:55:43.268Z,10.07
2019-04-11T15:58:12.853Z,11.30
2019-04-11T16:00:38.589Z,10.10
2019-04-11T16:03:05.723Z,10.93
2019-04-11T16:05:32.706Z,12.03
2019-04-11T16:07:59.425Z,10.40
2019-04-11T16:10:26.229Z,10.10
2019-04-11T16:12:52.953Z,13.33
2019-04-11T16:15:19.688Z,10.97
2019-04-11T16:17:46.466Z,11.33
2019-04-11T16:20:13.188Z,10.50
2019-04-11T16:22:39.925Z,11.90
2019-04-11T16:25:06.894Z,9.63
2019-04-11T16:27:34.311Z,12.90
2019-04-11T16:30:01.972Z,12.43
2019-04-11T16:32:28.755Z,11.50
2019-04-11T16:34:58.575Z,13.63
2019-04-11T16:37:23.875Z,12.10
2019-04-11T16:39:54.732Z,12.90
2019-04-11T16:42:19.205Z,12.87
2019-04-11T16:44:46.460Z,12.17
2019-04-11T16:47:13.195Z,12.77
2019-04-11T16:49:42.189Z,11.87
2019-04-11T16:52:08.552Z,11.33
2019-04-11T16:54:35.414Z,12.13
2019-04-11T16:57:02.142Z,13.03
2019-04-11T16:59:28.868Z,12.80
2019-04-11T17:01:55.655Z,11.97
2019-04-11T17:04:25.808Z,13.00
2019-04-11T17:06:55.394Z,14.03
2019-04-11T17:09:20.607Z,12.30
2019-04-11T17:11:47.449Z,14.50
2019-04-11T17:14:14.288Z,13.53
2019-04-11T17:16:41.130Z,16.17
2019-04-11T17:19:07.974Z,12.87
2019-04-11T17:21:43.187Z,14.77
2019-04-11T17:24:03.387Z,15.73
2019-04-11T17:26:30.274Z,14.70
2019-04-11T17:28:56.954Z,12.60
2019-04-11T17:31:25.943Z,12.60
2019-04-11T17:33:52.128Z,12.73
2019-04-11T17:36:18.845Z,13.93
2019-04-11T17:38:45.640Z,12.53
2019-04-11T17:41:12.367Z,12.17
2019-04-11T17:43:39.111Z,15.53
2019-04-11T17:46:05.884Z,11.87
2019-04-11T17:48:32.628Z,11.73
2019-04-11T17:50:59.363Z,13.20
2019-04-11T17:53:26.168Z,12.87
2019-04-11T17:55:54.277Z,13.57
2019-04-11T17:58:21.272Z,14.13
2019-04-11T18:00:48.077Z,13.53
2019-04-11T18:03:14.858Z,13.40
2019-04-11T18:05:41.526Z,15.47
2019-04-11T18:08:08.318Z,14.60
2019-04-11T18:10:35.035Z,11.03
2019-04-11T18:13:01.755Z,14.50
2019-04-11T18:15:28.860Z,16.47
2019-04-11T18:17:56.929Z,14.63
2019-04-11T18:20:23.673Z,16.17
2019-04-11T18:22:50.534Z,14.13
2019-04-11T18:25:20.789Z,15.43
2019-04-11T18:27:45.690Z,15.17
2019-04-11T18:30:12.476Z,15.10
2019-04-11T18:32:39.204Z,13.60
2019-04-11T18:35:05.932Z,14.17
2019-04-11T18:37:32.798Z,15.73
2019-04-11T18:39:59.458Z,15.63
2019-04-11T18:42:26.188Z,16.60
2019-04-11T18:44:52.971Z,15.43
2019-04-11T18:47:19.770Z,16.70
2019-04-11T18:49:46.441Z,14.37
2019-04-11T18:52:19.758Z,17.20
2019-04-11T18:54:41.787Z,14.40
2019-04-11T18:57:08.499Z,17.10
2019-04-11T18:59:35.502Z,17.07
2019-04-11T19:02:02.224Z,15.80
2019-04-11T19:04:32.533Z,16.40
2019-04-11T19:06:57.381Z,14.97
2019-04-11T19:09:24.098Z,15.80
2019-04-11T19:11:51.549Z,16.87
2019-04-11T19:14:18.662Z,17.17
2019-04-11T19:16:46.102Z,14.20
2019-04-11T19:19:17.704Z,16.53
2019-04-11T19:21:41.942Z,16.33
2019-04-11T19:24:10.846Z,15.13
2019-04-11T19:26:37.044Z,16.17
2019-04-11T19:29:06.098Z,17.67
2019-04-11T19:31:32.220Z,15.40
2019-04-11T19:33:58.937Z,14.97
2019-04-11T19:36:25.770Z,16.00
2019-04-11T19:38:52.501Z,15.40
2019-04-11T19:41:19.226Z,18.23
2019-04-11T19:43:48.729Z,19.17
2019-04-11T19:46:14.399Z,17.40
2019-04-11T19:48:41.128Z,17.07
2019-04-11T19:51:10.722Z,16.97
2019-04-11T19:53:36.449Z,18.10
2019-04-11T19:56:05.421Z,18.20
2019-04-11T19:58:31.600Z,20.90
2019-04-11T20:00:58.326Z,17.77
2019-04-11T20:03:25.043Z,18.43
2019-04-11T20:05:51.838Z,19.57
2019-04-11T20:08:18.568Z,20.47
2019-04-11T20:10:45.317Z,18.10
2019-04-11T20:13:12.108Z,19.13
2019-04-11T20:15:42.124Z,19.77
2019-04-11T20:18:07.459Z,16.27
2019-04-11T20:20:36.830Z,19.10
2019-04-11T20:23:02.670Z,18.97
2019-04-11T20:25:29.361Z,17.33
2019-04-11T20:27:57.446Z,23.50
2019-04-11T20:30:25.403Z,23.37
2019-04-11T20:32:52.929Z,20.20
2019-04-11T20:35:28.413Z,19.30
2019-04-11T20:37:48.250Z,21.97
2019-04-11T20:40:17.744Z,19.20
2019-04-11T20:42:43.566Z,16.67
2019-04-11T20:45:10.293Z,20.33
2019-04-11T20:47:37.055Z,18.07
2019-04-11T20:50:07.588Z,19.60
2019-04-11T20:52:32.240Z,18.03
2019-04-11T20:54:59.025Z,18.63
2019-04-11T20:57:26.368Z,18.90
2019-04-11T20:59:53.358Z,21.97
2019-04-11T21:02:20.343Z,22.43
2019-04-11T21:04:47.397Z,21.00
2019-04-11T21:07:14.734Z,20.37
2019-04-11T21:09:41.442Z,19.63
2019-04-11T21:12:08.386Z,19.53
2019-04-11T21:14:35.125Z,20.27
2019-04-11T21:17:01.849Z,19.17
2019-04-11T21:19:28.649Z,19.77
2019-04-11T21:21:55.377Z,19.63
2019-04-11T21:24:22.093Z,20.37
2019-04-11T21:26:49.205Z,19.00
2019-04-11T21:29:15.935Z,20.00
2019-04-11T21:31:42.679Z,21.50
2019-04-11T21:34:09.612Z,18.23
2019-04-11T21:36:36.573Z,20.40
2019-04-11T21:39:03.964Z,22.07
2019-04-11T21:41:31.217Z,20.40
2019-04-11T21:43:57.945Z,25.50
2019-04-11T21:46:24.691Z,23.93
2019-04-11T21:48:51.483Z,21.40
2019-04-11T21:51:18.212Z,21.53
2019-04-11T21:53:45.438Z,21.53
2019-04-11T21:56:12.298Z,23.03
2019-04-11T21:58:39.149Z,24.67
2019-04-11T22:01:05.883Z,20.93
2019-04-11T22:03:32.672Z,27.77
2019-04-11T22:06:00.104Z,25.20
2019-04-11T22:08:27.299Z,24.03
2019-04-11T22:10:54.069Z,24.00
2019-04-11T22:13:20.802Z,22.87
2019-04-11T22:15:47.528Z,22.53
2019-04-11T22:18:16.821Z,18.13
2019-04-11T22:20:45.237Z,22.13
2019-04-11T22:23:11.435Z,22.07
2019-04-11T22:25:38.261Z,22.87
2019-04-11T22:28:04.970Z,19.93
2019-04-11T22:30:31.686Z,22.70
2019-04-11T22:32:58.639Z,20.63
2019-04-11T22:35:28.547Z,21.17
2019-04-11T22:37:53.734Z,21.97
2019-04-11T22:40:20.523Z,20.80
2019-04-11T22:42:47.246Z,21.93
2019-04-11T22:45:13.970Z,21.57
2019-04-11T22:47:40.762Z,23.10
2019-04-11T22:50:09.861Z,18.37
2019-04-11T22:52:35.859Z,19.90
2019-04-11T22:55:02.650Z,19.23
2019-04-11T22:57:29.392Z,15.23
2019-04-11T22:59:56.119Z,14.47
2019-04-11T23:02:22.898Z,14.37
2019-04-11T23:04:49.616Z,13.23
2019-04-11T23:07:17.934Z,14.23
2019-04-11T23:09:48.584Z,13.80
2019-04-11T23:12:15.248Z,14.00
2019-04-11T23:14:45.400Z,15.27
2019-04-11T23:17:11.841Z,15.67
2019-04-11T23:19:38.323Z,14.03
2019-04-11T23:22:05.037Z,15.13
2019-04-11T23:24:31.820Z,15.83
2019-04-11T23:26:58.552Z,14.57
2019-04-11T23:29:25.282Z,13.67
2019-04-11T23:31:52.077Z,17.63
2019-04-11T23:34:19.738Z,14.93
2019-04-11T23:36:51.054Z,13.93
2019-04-11T23:39:15.590Z,15.53
2019-04-11T23:41:42.316Z,14.87
2019-04-11T23:44:09.052Z,14.57
2019-04-11T23:46:35.882Z,16.10
2019-04-11T23:49:02.580Z,14.23
2019-04-11T23:51:29.348Z,16.03
2019-04-11T23:53:59.038Z,15.70
2019-04-11T23:56:24.508Z,14.90
2019-04-11T23:58:51.246Z,15.07
